createdAt,value
2023-02-26T00:00:09.792Z,98903.84
2023-02-26T00:02:38.039Z,98906.91
2023-02-26T00:05:05.195Z,98911.88
2023-02-26T00:07:33.180Z,98900.25
2023-02-26T00:10:01.414Z,98892.84
2023-02-26T00:12:30.015Z,98893.31
2023-02-26T00:14:56.903Z,98888.59
2023-02-26T00:17:24.609Z,98890.50
2023-02-26T00:19:51.254Z,98884.94
2023-02-26T00:22:17.860Z,98886.81
2023-02-26T00:24:44.391Z,98874.06
2023-02-26T00:27:12.067Z,98881.03
2023-02-26T00:29:40.653Z,98865.88
2023-02-26T00:32:08.757Z,98856.50
2023-02-26T00:34:35.503Z,98859.88
2023-02-26T00:37:11.065Z,98867.06
2023-02-26T00:39:44.181Z,98870.03
2023-02-26T00:42:10.862Z,98857.06
2023-02-26T00:44:37.530Z,98856.81
2023-02-26T00:47:08.234Z,98858.50
2023-02-26T00:49:47.383Z,98862.31
2023-02-26T00:52:16.802Z,98893.94
2023-02-26T00:54:43.245Z,98878.16
2023-02-26T00:57:09.729Z,98884.13
2023-02-26T00:59:36.242Z,98888.38
2023-02-26T01:02:02.738Z,98891.38
2023-02-26T01:04:29.389Z,98900.56
2023-02-26T01:06:57.144Z,98900.75
2023-02-26T01:09:31.115Z,98908.63
2023-02-26T01:12:01.530Z,98909.69
2023-02-26T01:14:28.950Z,98907.44
2023-02-26T01:17:17.091Z,98903.72
2023-02-26T01:19:43.589Z,98904.09
2023-02-26T01:22:14.771Z,98898.44
2023-02-26T01:24:42.102Z,98904.31
2023-02-26T01:27:10.081Z,98914.16
2023-02-26T01:29:37.088Z,98906.16
2023-02-26T01:32:15.697Z,98903.97
2023-02-26T01:34:46.184Z,98898.81
2023-02-26T01:37:13.369Z,98892.38
2023-02-26T01:39:44.065Z,98900.28
2023-02-26T01:42:22.968Z,98907.63
2023-02-26T01:45:05.881Z,98907.53
2023-02-26T01:48:03.016Z,98902.03
2023-02-26T01:50:32.186Z,98888.75
2023-02-26T01:52:59.018Z,98874.78
2023-02-26T01:55:27.254Z,98878.94
2023-02-26T01:57:55.983Z,98872.44
2023-02-26T02:00:23.714Z,98871.19
2023-02-26T02:02:50.640Z,98838.06
2023-02-26T02:05:22.333Z,98842.31
2023-02-26T02:07:48.794Z,98871.72
2023-02-26T02:10:15.264Z,98860.81
2023-02-26T02:12:48.021Z,98861.31
2023-02-26T02:15:15.367Z,98889.13
2023-02-26T02:17:57.352Z,98892.75
2023-02-26T02:20:40.672Z,98879.78
2023-02-26T02:23:12.338Z,98879.13
2023-02-26T02:25:52.485Z,98875.66
2023-02-26T02:28:21.952Z,98875.91
2023-02-26T02:31:00.663Z,98879.88
2023-02-26T02:33:31.553Z,98850.56
2023-02-26T02:36:01.742Z,98820.31
2023-02-26T02:38:33.547Z,98813.88
2023-02-26T02:41:07.494Z,98814.25
2023-02-26T02:43:36.565Z,98810.22
2023-02-26T02:46:08.687Z,98795.91
2023-02-26T02:48:39.964Z,98795.47
2023-02-26T02:51:09.262Z,98766.31
2023-02-26T02:53:38.942Z,98753.19
2023-02-26T02:56:10.179Z,98736.09
2023-02-26T02:58:41.702Z,98711.41
2023-02-26T03:01:11.027Z,98728.09
2023-02-26T03:03:43.377Z,98733.19
2023-02-26T03:06:09.959Z,98722.09
2023-02-26T03:08:38.619Z,98736.19
2023-02-26T03:11:05.137Z,98744.75
2023-02-26T03:13:31.907Z,98721.47
2023-02-26T03:16:04.500Z,98698.19
2023-02-26T03:18:41.831Z,98682.50
2023-02-26T03:21:14.736Z,98667.06
2023-02-26T03:23:47.955Z,98666.94
2023-02-26T03:26:47.462Z,98662.22
2023-02-26T03:29:26.829Z,98650.34
2023-02-26T03:31:53.340Z,98625.84
2023-02-26T03:34:24.873Z,98633.22
2023-02-26T03:37:02.110Z,98626.53
2023-02-26T03:39:35.608Z,98617.56
2023-02-26T03:42:04.988Z,98631.81
2023-02-26T03:44:33.722Z,98637.78
2023-02-26T03:47:01.934Z,98641.41
2023-02-26T03:49:34.592Z,98669.53
2023-02-26T03:52:02.204Z,98666.13
2023-02-26T03:54:37.574Z,98680.50
2023-02-26T03:57:05.735Z,98689.84
2023-02-26T03:59:33.203Z,98710.91
2023-02-26T04:02:03.706Z,98726.84
2023-02-26T04:04:33.034Z,98743.63
2023-02-26T04:07:00.205Z,98745.22
2023-02-26T04:09:28.390Z,98756.19
2023-02-26T04:11:56.551Z,98764.38
2023-02-26T04:14:24.306Z,98771.69
2023-02-26T04:16:50.800Z,98763.50
2023-02-26T04:19:17.398Z,98758.84
2023-02-26T04:21:43.862Z,98762.03
2023-02-26T04:24:10.864Z,98781.22
2023-02-26T04:26:37.795Z,98797.97
2023-02-26T04:29:06.924Z,98818.88
2023-02-26T04:31:33.526Z,98854.84
2023-02-26T04:34:00.012Z,98867.06
2023-02-26T04:36:26.872Z,98873.22
2023-02-26T04:38:53.684Z,98889.19
2023-02-26T04:41:20.122Z,98894.75
2023-02-26T04:43:47.779Z,98892.69
2023-02-26T04:46:14.340Z,98912.09
2023-02-26T04:48:42.030Z,98905.94
2023-02-26T04:51:09.927Z,98920.91
2023-02-26T04:53:37.656Z,98943.69
2023-02-26T04:56:04.201Z,98952.38
2023-02-26T04:58:32.208Z,98956.84
2023-02-26T05:00:58.821Z,98965.47
2023-02-26T05:03:25.497Z,98974.19
2023-02-26T05:05:51.953Z,98986.84
2023-02-26T05:08:18.460Z,99014.22
2023-02-26T05:10:45.669Z,99010.50
2023-02-26T05:13:13.237Z,99012.44
2023-02-26T05:15:41.069Z,99026.81
2023-02-26T05:18:08.884Z,99032.28
2023-02-26T05:20:35.420Z,99040.69
2023-02-26T05:23:01.936Z,99046.66
2023-02-26T05:25:28.507Z,99049.25
2023-02-26T05:27:55.837Z,99049.56
2023-02-26T05:30:23.191Z,99057.00
2023-02-26T05:32:49.880Z,99060.63
2023-02-26T05:35:16.355Z,99080.16
2023-02-26T05:37:42.878Z,99086.34
2023-02-26T05:40:11.207Z,99094.09
2023-02-26T05:42:39.802Z,99095.09
2023-02-26T05:45:07.700Z,99098.31
2023-02-26T05:47:34.870Z,99088.75
2023-02-26T05:50:01.770Z,99110.97
2023-02-26T05:52:28.233Z,99101.59
2023-02-26T05:54:56.181Z,99099.09
2023-02-26T05:57:23.496Z,99089.91
2023-02-26T05:59:50.452Z,99086.44
2023-02-26T06:02:17.012Z,99069.47
2023-02-26T06:04:43.726Z,99073.19
2023-02-26T06:07:10.368Z,99069.47
2023-02-26T06:09:36.818Z,99062.53
2023-02-26T06:12:04.541Z,99061.72
2023-02-26T06:14:31.048Z,99062.41
2023-02-26T06:16:58.782Z,99055.97
2023-02-26T06:19:25.381Z,99064.63
2023-02-26T06:21:51.952Z,99069.19
2023-02-26T06:24:18.454Z,99067.75
2023-02-26T06:26:45.050Z,99070.53
2023-02-26T06:29:12.020Z,99080.66
2023-02-26T06:31:38.709Z,99084.97
2023-02-26T06:34:05.233Z,99091.22
2023-02-26T06:36:31.965Z,99096.72
2023-02-26T06:38:58.462Z,99110.25
2023-02-26T06:41:24.935Z,99119.19
2023-02-26T06:43:51.422Z,99120.91
2023-02-26T06:46:17.958Z,99126.50
2023-02-26T06:48:44.508Z,99136.88
2023-02-26T06:51:10.981Z,99148.97
2023-02-26T06:53:38.907Z,99149.25
2023-02-26T06:56:05.554Z,99143.44
2023-02-26T06:58:32.107Z,99143.75
2023-02-26T07:00:58.753Z,99145.53
2023-02-26T07:03:25.338Z,99157.38
2023-02-26T07:05:51.789Z,99154.50
2023-02-26T07:08:19.661Z,99166.25
2023-02-26T07:10:49.327Z,99173.13
2023-02-26T07:13:17.612Z,99174.59
2023-02-26T07:15:46.317Z,99177.28
2023-02-26T07:18:14.173Z,99196.81
2023-02-26T07:20:41.505Z,99206.31
2023-02-26T07:23:09.324Z,99207.00
2023-02-26T07:25:35.866Z,99219.72
2023-02-26T07:28:04.084Z,99221.34
2023-02-26T07:30:32.384Z,99231.25
2023-02-26T07:32:59.174Z,99244.84
2023-02-26T07:35:25.644Z,99263.09
2023-02-26T07:37:52.430Z,99267.59
2023-02-26T07:40:19.029Z,99263.50
2023-02-26T07:42:45.569Z,99278.25
2023-02-26T07:45:12.200Z,99296.50
2023-02-26T07:47:38.904Z,99298.94
2023-02-26T07:50:05.760Z,99300.13
2023-02-26T07:52:32.266Z,99306.25
2023-02-26T07:54:58.713Z,99301.94
2023-02-26T07:57:26.661Z,99316.31
2023-02-26T07:59:53.182Z,99336.06
2023-02-26T08:02:19.729Z,99353.50
2023-02-26T08:04:46.269Z,99357.19
2023-02-26T08:07:12.739Z,99360.22
2023-02-26T08:09:40.510Z,99381.47
2023-02-26T08:12:06.953Z,99386.34
2023-02-26T08:14:33.407Z,99395.16
2023-02-26T08:16:59.933Z,99404.03
2023-02-26T08:19:26.424Z,99392.75
2023-02-26T08:21:55.334Z,99413.31
2023-02-26T08:24:22.199Z,99414.59
2023-02-26T08:26:50.686Z,99412.88
2023-02-26T08:29:17.257Z,99426.09
2023-02-26T08:31:44.231Z,99430.81
2023-02-26T08:34:10.758Z,99438.72
2023-02-26T08:36:37.291Z,99436.13
2023-02-26T08:39:03.825Z,99445.03
2023-02-26T08:41:32.441Z,99454.19
2023-02-26T08:44:00.770Z,99468.28
2023-02-26T08:46:27.696Z,99475.81
2023-02-26T08:48:54.468Z,99484.09
2023-02-26T08:51:24.155Z,99493.31
2023-02-26T08:53:51.319Z,99513.16
2023-02-26T08:56:19.152Z,99528.72
2023-02-26T08:58:45.702Z,99537.03
2023-02-26T09:01:12.618Z,99536.56
2023-02-26T09:03:39.893Z,99548.78
2023-02-26T09:06:06.661Z,99554.28
2023-02-26T09:08:34.100Z,99563.41
2023-02-26T09:11:01.792Z,99569.75
2023-02-26T09:13:30.548Z,99578.41
2023-02-26T09:15:57.712Z,99586.59
2023-02-26T09:18:25.798Z,99583.28
2023-02-26T09:20:52.480Z,99578.31
2023-02-26T09:23:20.259Z,99582.88
2023-02-26T09:25:46.815Z,99591.47
2023-02-26T09:28:14.018Z,99597.28
2023-02-26T09:30:42.477Z,99600.16
2023-02-26T09:33:10.825Z,99614.22
2023-02-26T09:35:37.364Z,99625.44
2023-02-26T09:38:04.154Z,99631.59
2023-02-26T09:40:39.774Z,99633.69
2023-02-26T09:43:22.192Z,99638.66
2023-02-26T09:45:50.712Z,99639.53
2023-02-26T09:48:20.338Z,99636.03
2023-02-26T09:50:49.888Z,99637.84
2023-02-26T09:53:40.825Z,99651.94
2023-02-26T09:56:15.633Z,99646.06
2023-02-26T09:58:43.626Z,99645.66
2023-02-26T10:01:22.687Z,99650.69
2023-02-26T10:03:56.327Z,99656.31
2023-02-26T10:06:35.022Z,99658.09
2023-02-26T10:09:05.915Z,99655.63
2023-02-26T10:11:35.532Z,99667.56
2023-02-26T10:14:06.256Z,99681.47
2023-02-26T10:16:35.973Z,99678.31
2023-02-26T10:19:10.337Z,99678.41
2023-02-26T10:21:36.858Z,99685.44
2023-02-26T10:24:08.352Z,99693.63
2023-02-26T10:26:43.161Z,99681.31
2023-02-26T10:29:18.609Z,99687.72
2023-02-26T10:31:52.479Z,99687.94
2023-02-26T10:34:18.961Z,99681.78
2023-02-26T10:36:45.403Z,99683.97
2023-02-26T10:39:32.220Z,99683.78
2023-02-26T10:42:01.581Z,99689.34
2023-02-26T10:44:30.981Z,99689.34
2023-02-26T10:47:18.328Z,99694.41
2023-02-26T10:49:48.052Z,99694.91
2023-02-26T10:52:19.571Z,99706.16
2023-02-26T10:54:49.020Z,99697.66
2023-02-26T10:57:26.316Z,99696.22
2023-02-26T10:59:54.684Z,99692.38
2023-02-26T11:02:36.552Z,99693.09
2023-02-26T11:05:07.821Z,99696.28
2023-02-26T11:07:37.289Z,99712.94
2023-02-26T11:10:04.092Z,99720.44
2023-02-26T11:12:32.144Z,99712.38
2023-02-26T11:15:00.690Z,99727.59
2023-02-26T11:17:29.576Z,99715.44
2023-02-26T11:19:57.903Z,99726.69
2023-02-26T11:22:26.979Z,99714.09
2023-02-26T11:24:53.493Z,99711.00
2023-02-26T11:27:22.262Z,99707.22
2023-02-26T11:29:54.025Z,99714.72
2023-02-26T11:32:22.557Z,99713.63
2023-02-26T11:34:50.763Z,99710.53
2023-02-26T11:37:24.446Z,99714.25
2023-02-26T11:39:55.825Z,99706.13
2023-02-26T11:42:22.365Z,99696.75
2023-02-26T11:44:49.121Z,99710.09
2023-02-26T11:47:16.888Z,99704.66
2023-02-26T11:49:51.061Z,99697.06
2023-02-26T11:52:44.480Z,99703.06
2023-02-26T11:55:23.808Z,99716.56
2023-02-26T11:57:54.216Z,99717.34
2023-02-26T12:00:23.780Z,99712.81
2023-02-26T12:02:50.315Z,99717.22
2023-02-26T12:05:18.212Z,99719.31
2023-02-26T12:07:46.921Z,99711.25
2023-02-26T12:10:20.106Z,99731.25
2023-02-26T12:13:05.346Z,99734.78
2023-02-26T12:15:45.667Z,99726.63
2023-02-26T12:18:15.845Z,99729.88
2023-02-26T12:20:52.764Z,99735.63
2023-02-26T12:23:35.087Z,99733.72
2023-02-26T12:26:02.898Z,99741.50
2023-02-26T12:28:48.569Z,99746.66
2023-02-26T12:31:17.105Z,99734.06
2023-02-26T12:33:58.864Z,99734.03
2023-02-26T12:36:49.802Z,99724.88
2023-02-26T12:39:35.263Z,99719.06
2023-02-26T12:42:18.443Z,99729.22
2023-02-26T12:44:57.068Z,99728.72
2023-02-26T12:47:23.559Z,99723.91
2023-02-26T12:50:08.894Z,99735.41
2023-02-26T12:52:52.073Z,99734.59
2023-02-26T12:55:34.924Z,99733.63
2023-02-26T12:58:33.101Z,99726.88
2023-02-26T13:00:59.630Z,99723.38
2023-02-26T13:03:44.770Z,99726.69
2023-02-26T13:06:43.639Z,99722.38
2023-02-26T13:09:10.178Z,99713.69
2023-02-26T13:11:55.623Z,99713.50
2023-02-26T13:14:31.309Z,99719.41
2023-02-26T13:16:58.391Z,99707.53
2023-02-26T13:19:51.358Z,99693.28
2023-02-26T13:22:25.539Z,99699.28
2023-02-26T13:24:51.972Z,99690.09
2023-02-26T13:27:20.109Z,99685.75
2023-02-26T13:29:48.638Z,99689.59
2023-02-26T13:32:21.464Z,99696.03
2023-02-26T13:34:59.924Z,99684.91
2023-02-26T13:37:30.699Z,99693.84
2023-02-26T13:40:19.563Z,99692.28
2023-02-26T13:42:49.027Z,99685.78
2023-02-26T13:45:34.363Z,99678.50
2023-02-26T13:48:03.995Z,99675.06
2023-02-26T13:50:49.309Z,99675.59
2023-02-26T13:53:26.971Z,99678.25
2023-02-26T13:55:55.538Z,99672.34
2023-02-26T13:58:22.024Z,99671.84
2023-02-26T14:01:09.119Z,99676.91
2023-02-26T14:03:37.576Z,99677.72
2023-02-26T14:06:25.784Z,99683.41
2023-02-26T14:08:54.326Z,99684.16
2023-02-26T14:11:30.517Z,99682.00
2023-02-26T14:14:05.922Z,99680.47
2023-02-26T14:16:34.523Z,99676.34
2023-02-26T14:19:24.399Z,99672.59
2023-02-26T14:21:55.417Z,99681.25
2023-02-26T14:24:36.540Z,99682.00
2023-02-26T14:27:13.777Z,99665.56
2023-02-26T14:29:44.823Z,99657.81
2023-02-26T14:32:11.333Z,99659.41
2023-02-26T14:34:44.260Z,99646.19
2023-02-26T14:37:15.699Z,99655.13
2023-02-26T14:39:43.432Z,99641.66
2023-02-26T14:42:16.526Z,99629.25
2023-02-26T14:44:45.300Z,99640.31
2023-02-26T14:47:12.564Z,99630.84
2023-02-26T14:49:41.464Z,99616.31
2023-02-26T14:52:27.518Z,99609.91
2023-02-26T14:55:00.009Z,99607.19
2023-02-26T14:57:27.950Z,99605.34
2023-02-26T14:59:55.915Z,99614.19
2023-02-26T15:02:28.418Z,99594.53
2023-02-26T15:05:14.272Z,99590.00
2023-02-26T15:07:43.640Z,99577.06
2023-02-26T15:10:10.103Z,99571.13
2023-02-26T15:12:36.632Z,99553.41
2023-02-26T15:15:10.652Z,99550.13
2023-02-26T15:17:40.428Z,99533.19
2023-02-26T15:20:26.959Z,99536.19
2023-02-26T15:23:08.887Z,99523.22
2023-02-26T15:25:36.793Z,99504.94
2023-02-26T15:28:06.680Z,99510.84
2023-02-26T15:30:34.510Z,99490.13
2023-02-26T15:33:03.712Z,99471.59
2023-02-26T15:35:32.818Z,99461.94
2023-02-26T15:38:01.326Z,99441.19
2023-02-26T15:40:31.709Z,99430.69
2023-02-26T15:42:59.173Z,99417.31
2023-02-26T15:45:35.981Z,99408.66
2023-02-26T15:48:04.567Z,99389.31
2023-02-26T15:50:33.964Z,99377.53
2023-02-26T15:53:03.763Z,99364.88
2023-02-26T15:55:36.314Z,99359.22
2023-02-26T15:58:05.452Z,99346.34
2023-02-26T16:00:33.164Z,99344.19
2023-02-26T16:02:59.792Z,99314.38
2023-02-26T16:05:27.047Z,99293.16
2023-02-26T16:07:54.230Z,99296.91
2023-02-26T16:10:35.415Z,99290.47
2023-02-26T16:13:02.348Z,99264.69
2023-02-26T16:15:34.001Z,99263.59
2023-02-26T16:18:02.001Z,99257.13
2023-02-26T16:20:32.743Z,99249.66
2023-02-26T16:23:05.579Z,99236.22
2023-02-26T16:25:51.840Z,99235.69
2023-02-26T16:28:28.629Z,99211.75
2023-02-26T16:30:57.506Z,99207.75
2023-02-26T16:33:26.432Z,99205.06
2023-02-26T16:36:03.431Z,99191.63
2023-02-26T16:38:51.012Z,99188.41
2023-02-26T16:41:22.604Z,99194.06
2023-02-26T16:43:49.354Z,99185.19
2023-02-26T16:46:28.780Z,99180.34
2023-02-26T16:48:58.192Z,99199.41
2023-02-26T16:51:25.719Z,99184.66
2023-02-26T16:54:06.128Z,99180.88
2023-02-26T16:56:34.541Z,99176.59
2023-02-26T16:59:05.151Z,99165.31
2023-02-26T17:01:35.422Z,99131.78
2023-02-26T17:04:03.910Z,99124.53
2023-02-26T17:06:31.435Z,99124.78
2023-02-26T17:08:59.065Z,99114.31
2023-02-26T17:11:34.579Z,99110.59
2023-02-26T17:14:04.303Z,99112.69
2023-02-26T17:16:30.809Z,99088.56
2023-02-26T17:18:57.482Z,99069.53
2023-02-26T17:21:24.283Z,99070.31
2023-02-26T17:23:51.022Z,99071.38
2023-02-26T17:26:18.858Z,99068.69
2023-02-26T17:28:46.074Z,99065.47
2023-02-26T17:31:14.601Z,99044.03
2023-02-26T17:33:42.030Z,99030.59
2023-02-26T17:36:21.708Z,99004.91
2023-02-26T17:38:48.525Z,99003.84
2023-02-26T17:41:17.924Z,98996.59
2023-02-26T17:43:44.598Z,98980.78
2023-02-26T17:46:12.422Z,98980.25
2023-02-26T17:48:39.102Z,98978.38
2023-02-26T17:51:06.058Z,98953.72
2023-02-26T17:53:40.965Z,98944.88
2023-02-26T17:56:37.372Z,98941.38
2023-02-26T17:59:05.085Z,98937.38
2023-02-26T18:01:31.653Z,98918.09
2023-02-26T18:04:00.999Z,98896.63
2023-02-26T18:06:30.813Z,98904.69
2023-02-26T18:08:58.701Z,98896.63
2023-02-26T18:11:26.236Z,98892.91
2023-02-26T18:13:55.379Z,98895.03
2023-02-26T18:16:23.711Z,98892.34
2023-02-26T18:18:50.847Z,98875.47
2023-02-26T18:21:17.427Z,98860.75
2023-02-26T18:23:45.257Z,98866.09
2023-02-26T18:26:12.633Z,98859.16
2023-02-26T18:28:40.833Z,98840.94
2023-02-26T18:31:09.920Z,98822.72
2023-02-26T18:33:38.697Z,98836.13
2023-02-26T18:36:06.162Z,98828.63
2023-02-26T18:38:33.017Z,98812.84
2023-02-26T18:41:02.006Z,98806.66
2023-02-26T18:43:30.162Z,98776.13
2023-02-26T18:46:01.341Z,98757.38
2023-02-26T18:48:28.363Z,98740.44
2023-02-26T18:50:55.889Z,98732.41
2023-02-26T18:53:23.814Z,98724.09
2023-02-26T18:55:54.055Z,98713.84
2023-02-26T18:58:21.017Z,98714.91
2023-02-26T19:00:48.694Z,98718.16
2023-02-26T19:03:15.296Z,98698.56
2023-02-26T19:05:42.373Z,98699.63
2023-02-26T19:08:09.314Z,98688.13
2023-02-26T19:10:35.899Z,98676.34
2023-02-26T19:13:04.083Z,98657.00
2023-02-26T19:15:30.915Z,98639.34
2023-02-26T19:17:57.629Z,98631.59
2023-02-26T19:20:24.157Z,98562.00
2023-02-26T19:22:50.714Z,98512.81
2023-02-26T19:25:25.285Z,98544.34
2023-02-26T19:27:53.530Z,98531.78
2023-02-26T19:30:20.874Z,98519.63
2023-02-26T19:32:47.860Z,98526.75
2023-02-26T19:35:14.339Z,98518.19
2023-02-26T19:37:40.892Z,98508.69
2023-02-26T19:40:12.885Z,98530.09
2023-02-26T19:42:39.930Z,98501.44
2023-02-26T19:45:06.701Z,98477.22
2023-02-26T19:47:33.184Z,98454.66
2023-02-26T19:49:59.750Z,98439.69
2023-02-26T19:52:28.144Z,98414.78
2023-02-26T19:54:54.594Z,98396.38
2023-02-26T19:57:22.488Z,98405.38
2023-02-26T19:59:50.244Z,98390.41
2023-02-26T20:02:16.726Z,98368.00
2023-02-26T20:04:43.198Z,98363.94
2023-02-26T20:07:10.769Z,98373.44
2023-02-26T20:09:37.320Z,98366.56
2023-02-26T20:12:03.847Z,98338.78
2023-02-26T20:14:30.299Z,98354.97
2023-02-26T20:16:56.860Z,98342.69
2023-02-26T20:19:23.386Z,98335.41
2023-02-26T20:21:51.573Z,98326.69
2023-02-26T20:24:20.117Z,98343.53
2023-02-26T20:26:49.010Z,98343.78
2023-02-26T20:29:18.473Z,98334.84
2023-02-26T20:31:47.309Z,98356.72
2023-02-26T20:34:15.137Z,98347.94
2023-02-26T20:36:44.241Z,98344.81
2023-02-26T20:39:12.113Z,98343.25
2023-02-26T20:41:38.566Z,98351.06
2023-02-26T20:44:05.081Z,98327.31
2023-02-26T20:46:33.077Z,98332.72
2023-02-26T20:48:59.861Z,98341.94
2023-02-26T20:51:26.712Z,98325.88
2023-02-26T20:53:53.493Z,98303.69
2023-02-26T20:56:21.345Z,98312.41
2023-02-26T20:58:47.853Z,98295.53
2023-02-26T21:01:14.377Z,98262.13
2023-02-26T21:03:41.089Z,98268.41
2023-02-26T21:06:08.320Z,98247.34
2023-02-26T21:08:34.837Z,98253.13
2023-02-26T21:11:01.893Z,98257.75
2023-02-26T21:13:29.992Z,98292.84
2023-02-26T21:15:57.367Z,98316.72
2023-02-26T21:18:23.926Z,98344.56
2023-02-26T21:20:50.883Z,98426.63
2023-02-26T21:23:18.413Z,98480.34
2023-02-26T21:25:46.086Z,98522.28
2023-02-26T21:28:13.362Z,98580.50
2023-02-26T21:30:42.502Z,98633.06
2023-02-26T21:33:09.529Z,98679.59
2023-02-26T21:35:36.116Z,98741.09
2023-02-26T21:38:02.609Z,98782.72
2023-02-26T21:40:30.483Z,98830.97
2023-02-26T21:42:57.139Z,98857.44
2023-02-26T21:45:23.656Z,98918.00
2023-02-26T21:47:50.193Z,98950.22
2023-02-26T21:50:16.825Z,98975.13
2023-02-26T21:52:43.409Z,99021.72
2023-02-26T21:55:11.496Z,99040.53
2023-02-26T21:57:37.987Z,99043.13
2023-02-26T22:00:06.256Z,99087.22
2023-02-26T22:02:32.805Z,99105.50
2023-02-26T22:05:00.217Z,99104.59
2023-02-26T22:07:26.918Z,99131.31
2023-02-26T22:09:53.411Z,99123.84
2023-02-26T22:12:20.072Z,99121.91
2023-02-26T22:14:46.725Z,99127.53
2023-02-26T22:17:13.169Z,99138.91
2023-02-26T22:19:41.141Z,99114.19
2023-02-26T22:22:07.699Z,99112.03
2023-02-26T22:24:35.633Z,99099.41
2023-02-26T22:27:03.221Z,99106.91
2023-02-26T22:29:31.446Z,99107.09
2023-02-26T22:31:58.108Z,99123.84
2023-02-26T22:34:25.016Z,99116.59
2023-02-26T22:36:52.273Z,99110.34
2023-02-26T22:39:19.236Z,99114.72
2023-02-26T22:41:47.237Z,99122.31
2023-02-26T22:44:14.990Z,99099.13
2023-02-26T22:46:42.657Z,99103.53
2023-02-26T22:49:09.479Z,99064.41
2023-02-26T22:51:36.055Z,99020.38
2023-02-26T22:54:02.829Z,99006.94
2023-02-26T22:56:29.392Z,98986.59
2023-02-26T22:58:56.824Z,98947.63
2023-02-26T23:01:24.902Z,98934.81
2023-02-26T23:03:53.177Z,98926.81
2023-02-26T23:06:19.617Z,98878.84
2023-02-26T23:08:46.099Z,98854.09
2023-02-26T23:11:12.897Z,98839.34
2023-02-26T23:13:39.573Z,98808.56
2023-02-26T23:16:07.796Z,98796.25
2023-02-26T23:18:36.478Z,98822.69
2023-02-26T23:21:03.455Z,98855.94
2023-02-26T23:23:31.932Z,98893.69
2023-02-26T23:25:58.370Z,98950.44
2023-02-26T23:28:25.509Z,98975.44
2023-02-26T23:30:52.317Z,98993.69
2023-02-26T23:33:18.853Z,99009.19
2023-02-26T23:35:45.328Z,99037.13
2023-02-26T23:38:11.849Z,99055.28
2023-02-26T23:40:38.341Z,99079.22
2023-02-26T23:43:04.829Z,99110.69
2023-02-26T23:45:31.361Z,99123.59
2023-02-26T23:47:57.837Z,99135.28
2023-02-26T23:50:24.377Z,99186.97
2023-02-26T23:52:50.956Z,99214.44
2023-02-26T23:55:17.680Z,99226.25
2023-02-26T23:57:44.581Z,99232.75
